Time;durP1;ratioP1;P1;durP2;ratioP2;P2;SDS_P1;SDS_P2;PMS_P1;PMS_P2;Temp;Humidity;BMP_temperature;BMP_pressure;BME280_temperature;BME280_humidity;BME280_pressure;Samples;Min_cycle;Max_cycle;Signal;HPM_P1;HPM_P2
2022/06/27 00:00:00;;;;;;;4.90;2.90;;;24.10;69.90;;;;;;5004389;28;20450;-77
2022/06/27 00:02:40;;;;;;;7.20;3.20;;;24.00;70.00;;;;;;5016518;28;20600;-77
2022/06/27 00:05:09;;;;;;;5.40;3.30;;;24.00;70.20;;;;;;5017881;28;21083;-77
2022/06/27 00:07:38;;;;;;;7.13;3.30;;;24.10;70.40;;;;;;5012302;28;20480;-77
2022/06/27 00:10:09;;;;;;;6.37;4.43;;;24.10;70.50;;;;;;5015513;28;20462;-77
2022/06/27 00:12:37;;;;;;;5.33;3.43;;;24.00;70.60;;;;;;5012112;28;20466;-77
2022/06/27 00:15:08;;;;;;;10.70;3.40;;;24.00;70.80;;;;;;5017065;28;20571;-77
2022/06/27 00:17:36;;;;;;;8.63;5.10;;;24.00;70.90;;;;;;5002375;28;20454;-77
2022/06/27 00:20:05;;;;;;;6.30;3.70;;;24.00;71.10;;;;;;5019804;28;20526;-77
2022/06/27 00:22:33;;;;;;;6.50;5.00;;;23.90;71.20;;;;;;5016737;28;20471;-77
2022/06/27 00:25:01;;;;;;;6.07;4.77;;;23.90;71.40;;;;;;5017475;28;20487;-78
2022/06/27 00:27:30;;;;;;;8.03;5.50;;;23.90;71.60;;;;;;5014396;28;20482;-77
2022/06/27 00:29:58;;;;;;;10.03;5.50;;;23.90;71.80;;;;;;5010293;28;20465;-77
2022/06/27 00:32:29;;;;;;;8.03;5.43;;;23.80;72.00;;;;;;5013650;28;20482;-77
2022/06/27 00:34:57;;;;;;;7.00;5.63;;;23.90;72.20;;;;;;5017817;28;20527;-77
2022/06/27 00:37:25;;;;;;;9.30;6.33;;;23.90;72.30;;;;;;5012574;28;20616;-77
2022/06/27 00:39:53;;;;;;;8.97;6.23;;;23.90;72.50;;;;;;4999911;28;20469;-77
2022/06/27 00:42:21;;;;;;;9.33;6.73;;;23.80;72.50;;;;;;5013443;28;20465;-76
2022/06/27 00:44:51;;;;;;;8.60;7.17;;;23.70;72.60;;;;;;5013350;28;20981;-76
2022/06/27 00:47:20;;;;;;;9.23;7.47;;;23.70;72.90;;;;;;5014617;28;20522;-77
2022/06/27 00:49:48;;;;;;;14.27;7.30;;;23.60;73.10;;;;;;5014805;28;20466;-77
2022/06/27 00:52:16;;;;;;;9.87;6.70;;;23.50;73.30;;;;;;5001532;28;20461;-76
2022/06/27 00:54:48;;;;;;;8.43;7.03;;;23.50;73.40;;;;;;4998637;28;20487;-77
2022/06/27 00:57:18;;;;;;;11.27;7.07;;;23.40;73.70;;;;;;5003045;28;20527;-77
2022/06/27 00:59:46;;;;;;;9.53;6.93;;;23.30;74.20;;;;;;5018618;28;20529;-77
2022/06/27 01:02:16;;;;;;;10.40;7.37;;;23.20;74.00;;;;;;5000643;28;20492;-77
2022/06/27 01:04:44;;;;;;;9.63;6.70;;;23.10;74.30;;;;;;5013278;28;20483;-77
2022/06/27 01:07:12;;;;;;;9.53;6.57;;;23.10;74.40;;;;;;5000090;28;20978;-77
2022/06/27 01:09:43;;;;;;;9.60;6.70;;;23.00;74.50;;;;;;5000228;28;20483;-77
2022/06/27 01:12:11;;;;;;;11.00;7.40;;;23.00;74.70;;;;;;5012574;28;20545;-77
2022/06/27 01:14:39;;;;;;;9.70;7.20;;;23.00;74.90;;;;;;5016666;28;20487;-77
2022/06/27 01:17:07;;;;;;;9.13;7.53;;;22.90;75.00;;;;;;5017271;28;21224;-77
2022/06/27 01:19:37;;;;;;;13.17;7.60;;;22.90;75.20;;;;;;5018031;28;20464;-77
2022/06/27 01:22:08;;;;;;;9.07;7.03;;;22.90;75.30;;;;;;5011277;28;20459;-78
2022/06/27 01:24:37;;;;;;;12.80;7.67;;;22.80;75.40;;;;;;5016226;28;20575;-77
2022/06/27 01:27:07;;;;;;;8.50;6.73;;;22.80;75.50;;;;;;5002968;28;20501;-77
2022/06/27 01:29:36;;;;;;;10.30;7.70;;;22.70;75.60;;;;;;5016991;28;20488;-78
2022/06/27 01:32:06;;;;;;;11.20;7.83;;;22.70;75.80;;;;;;4998650;28;20525;-77
2022/06/27 01:34:35;;;;;;;9.13;7.90;;;22.80;75.90;;;;;;5011357;28;20578;-78
2022/06/27 01:37:04;;;;;;;9.90;8.10;;;22.80;75.90;;;;;;5015065;28;20461;-78
2022/06/27 01:39:38;;;;;;;9.50;7.50;;;22.80;75.90;;;;;;5015296;28;20997;-78
2022/06/27 01:42:07;;;;;;;10.60;8.30;;;22.80;75.90;;;;;;5014097;28;20461;-77
2022/06/27 01:44:36;;;;;;;9.83;7.43;;;22.70;76.10;;;;;;5004163;28;21066;-78
2022/06/27 01:47:06;;;;;;;10.53;8.90;;;22.70;76.10;;;;;;5018067;28;20550;-78
2022/06/27 01:49:36;;;;;;;9.00;7.27;;;22.60;76.30;;;;;;5007102;28;20880;-77
2022/06/27 01:52:05;;;;;;;8.63;7.03;;;22.60;76.40;;;;;;5018238;28;20478;-77
2022/06/27 01:54:34;;;;;;;9.97;7.63;;;22.50;76.50;;;;;;5021185;28;20478;-76
2022/06/27 01:57:05;;;;;;;9.47;8.03;;;22.50;76.70;;;;;;5003717;28;20519;-77
2022/06/27 01:59:35;;;;;;;11.43;8.03;;;22.60;76.80;;;;;;5019963;28;21494;-77
2022/06/27 02:02:07;;;;;;;11.00;8.00;;;22.50;76.80;;;;;;5001795;28;20490;-76
2022/06/27 02:04:37;;;;;;;11.13;8.97;;;22.50;76.80;;;;;;5016662;28;20523;-77
2022/06/27 02:07:06;;;;;;;11.00;8.53;;;22.50;76.90;;;;;;5020404;28;20826;-77
2022/06/27 02:09:34;;;;;;;15.13;8.87;;;22.50;77.00;;;;;;5016560;28;20495;-76
2022/06/27 02:14:49;;;;;;;11.13;8.33;;;22.50;77.20;;;;;;5013190;28;20487;-77
2022/06/27 02:17:20;;;;;;;10.73;8.70;;;22.50;77.30;;;;;;5001956;28;21304;-78
2022/06/27 02:19:50;;;;;;;13.37;8.43;;;22.60;77.40;;;;;;5018852;28;20459;-78
2022/06/27 02:22:17;;;;;;;9.47;8.23;;;22.60;77.40;;;;;;5018299;28;20464;-78
2022/06/27 02:24:45;;;;;;;11.40;8.80;;;22.70;77.40;;;;;;5004600;28;20530;-78
2022/06/27 02:27:15;;;;;;;10.50;8.20;;;22.70;77.40;;;;;;5017921;28;21241;-78
2022/06/27 02:29:43;;;;;;;11.43;8.53;;;22.70;77.40;;;;;;5021283;28;20605;-78
2022/06/27 02:32:12;;;;;;;9.13;7.40;;;22.70;77.40;;;;;;5004149;28;20486;-78
2022/06/27 02:34:40;;;;;;;14.47;10.17;;;22.80;77.40;;;;;;5023543;28;20490;-78
2022/06/27 02:37:10;;;;;;;12.10;10.60;;;22.80;77.30;;;;;;5020226;28;20468;-78
2022/06/27 02:39:41;;;;;;;12.13;10.33;;;22.80;77.30;;;;;;5019876;28;20451;-79
2022/06/27 02:42:11;;;;;;;10.47;9.00;;;22.80;77.30;;;;;;5008588;28;20480;-78
2022/06/27 02:44:41;;;;;;;11.43;9.67;;;22.70;77.30;;;;;;5004744;28;20473;-78
2022/06/27 02:47:09;;;;;;;12.13;10.17;;;22.70;77.30;;;;;;5018108;28;20491;-78
2022/06/27 02:49:39;;;;;;;12.50;9.37;;;22.60;77.40;;;;;;5008177;28;20479;-78
2022/06/27 02:52:17;;;;;;;12.13;10.20;;;22.60;77.50;;;;;;5015560;28;20461;-77
2022/06/27 02:54:58;;;;;;;12.60;10.17;;;22.50;77.60;;;;;;5017769;28;20904;-78
2022/06/27 02:57:38;;;;;;;15.23;11.23;;;22.40;77.70;;;;;;5014889;28;21076;-78
2022/06/27 03:00:12;;;;;;;14.43;11.37;;;22.20;78.50;;;;;;5002873;28;20457;-78
2022/06/27 03:02:42;;;;;;;13.67;11.97;;;21.80;78.80;;;;;;5021198;28;20490;-77
2022/06/27 03:05:26;;;;;;;14.10;11.70;;;21.50;80.70;;;;;;5000448;28;20839;-77
2022/06/27 03:07:54;;;;;;;14.60;12.20;;;21.20;80.30;;;;;;5019642;28;20466;-78
2022/06/27 03:10:23;;;;;;;14.03;11.50;;;21.20;80.40;;;;;;5012012;28;21013;-77
2022/06/27 03:12:51;;;;;;;16.80;12.00;;;21.00;81.30;;;;;;5022466;28;20945;-78
2022/06/27 03:15:21;;;;;;;13.80;10.67;;;21.00;81.10;;;;;;5001521;28;20988;-78
2022/06/27 03:17:52;;;;;;;12.73;10.03;;;21.00;81.10;;;;;;5005658;28;20488;-78
2022/06/27 03:20:29;;;;;;;11.60;9.80;;;21.00;81.30;;;;;;5021154;28;20547;-77
2022/06/27 03:23:18;;;;;;;11.33;9.33;;;21.10;81.50;;;;;;5019543;28;20487;-77
2022/06/27 03:25:55;;;;;;;11.30;9.53;;;21.20;81.30;;;;;;5015627;28;20461;-78
2022/06/27 03:28:29;;;;;;;10.83;9.10;;;21.30;81.50;;;;;;5022038;28;20805;-77
2022/06/27 03:31:01;;;;;;;10.53;8.63;;;21.40;81.30;;;;;;5002176;28;20490;-76
2022/06/27 03:33:34;;;;;;;16.00;8.60;;;21.50;81.30;;;;;;5013877;28;20496;-77
2022/06/27 03:36:16;;;;;;;10.50;8.80;;;21.70;81.10;;;;;;4996993;28;20744;-77
2022/06/27 03:38:44;;;;;;;11.97;9.67;;;21.70;81.00;;;;;;5001763;28;20466;-77
2022/06/27 03:41:12;;;;;;;10.70;8.63;;;21.80;80.90;;;;;;5021167;28;20475;-76
2022/06/27 03:43:40;;;;;;;10.53;7.93;;;21.90;80.80;;;;;;5013319;28;21075;-77
2022/06/27 03:46:10;;;;;;;9.17;6.80;;;21.90;80.60;;;;;;5018293;28;20513;-77
2022/06/27 03:51:44;;;;;;;8.50;6.90;;;21.90;80.40;;;;;;5004341;28;20886;-77
2022/06/27 03:54:12;;;;;;;8.67;7.17;;;21.90;80.40;;;;;;5001072;28;20523;-77
2022/06/27 03:56:40;;;;;;;9.70;7.20;;;22.00;80.30;;;;;;5012098;28;21101;-77
2022/06/27 03:59:08;;;;;;;9.63;6.83;;;22.00;80.30;;;;;;5019995;28;20468;-77
2022/06/27 04:01:38;;;;;;;8.87;6.90;;;22.00;80.20;;;;;;5017581;28;20469;-77
2022/06/27 04:04:07;;;;;;;8.70;6.80;;;22.00;80.20;;;;;;5018538;28;21360;-77
2022/06/27 04:06:36;;;;;;;10.57;7.73;;;22.00;80.20;;;;;;5014371;28;20491;-76
2022/06/27 04:09:10;;;;;;;11.83;7.67;;;22.00;80.30;;;;;;5012631;28;21275;-76
2022/06/27 04:11:38;;;;;;;9.17;7.60;;;22.10;80.30;;;;;;5017311;28;20495;-76
2022/06/27 04:14:11;;;;;;;9.13;6.07;;;22.10;80.10;;;;;;5020810;28;20561;-76
2022/06/27 04:16:43;;;;;;;10.37;6.90;;;22.10;80.20;;;;;;5022591;28;20505;-76
2022/06/27 04:19:37;;;;;;;10.37;7.20;;;22.10;80.10;;;;;;5017246;28;20465;-76
2022/06/27 04:22:19;;;;;;;10.33;7.20;;;22.20;80.10;;;;;;4997912;28;20464;-77
2022/06/27 04:24:57;;;;;;;9.27;6.80;;;22.20;80.10;;;;;;5014965;28;20491;-77
2022/06/27 04:27:43;;;;;;;11.43;7.67;;;22.20;80.00;;;;;;5019259;28;20454;-77
2022/06/27 04:30:16;;;;;;;10.47;8.07;;;22.20;80.00;;;;;;5013300;28;20540;-77
2022/06/27 04:32:48;;;;;;;9.70;7.40;;;22.20;80.10;;;;;;5016368;28;20566;-77
2022/06/27 04:35:16;;;;;;;8.37;6.53;;;22.20;80.10;;;;;;5000446;28;20481;-76
2022/06/27 04:37:45;;;;;;;9.10;6.90;;;22.30;80.10;;;;;;5012216;28;20533;-76
2022/06/27 04:40:48;;;;;;;9.63;6.40;;;22.30;80.00;;;;;;5004041;28;20548;-76
2022/06/27 04:43:16;;;;;;;9.30;6.70;;;22.40;79.90;;;;;;5001630;28;20843;-76
2022/06/27 04:45:44;;;;;;;13.80;7.60;;;22.50;79.90;;;;;;5001220;28;20846;-77
2022/06/27 04:48:32;;;;;;;9.53;7.50;;;22.50;79.90;;;;;;5011861;28;20982;-76
2022/06/27 04:51:01;;;;;;;12.30;6.93;;;22.60;79.80;;;;;;5016124;28;20561;-76
2022/06/27 04:53:30;;;;;;;9.57;7.00;;;22.70;79.70;;;;;;5016770;28;20477;-76
2022/06/27 04:55:58;;;;;;;10.47;7.03;;;22.80;79.60;;;;;;4998718;28;20459;-76
2022/06/27 04:58:27;;;;;;;10.40;8.20;;;22.80;79.30;;;;;;5015524;28;21105;-77
2022/06/27 05:00:57;;;;;;;10.27;7.13;;;22.80;79.20;;;;;;4999618;28;20587;-76
2022/06/27 05:03:51;;;;;;;8.67;7.53;;;22.80;79.00;;;;;;4998959;28;20477;-76
2022/06/27 05:06:24;;;;;;;10.10;8.03;;;22.80;79.00;;;;;;5012362;28;21119;-76
2022/06/27 05:08:53;;;;;;;9.80;7.57;;;22.80;79.00;;;;;;5003646;28;20471;-77
2022/06/27 05:11:22;;;;;;;11.10;7.73;;;22.80;78.90;;;;;;5019175;28;20886;-78
2022/06/27 05:13:50;;;;;;;12.40;7.07;;;22.80;78.80;;;;;;5018621;28;20502;-77
2022/06/27 05:16:50;;;;;;;9.70;7.30;;;22.70;78.80;;;;;;5010527;28;20484;-77
2022/06/27 05:19:22;;;;;;;11.77;8.07;;;22.70;78.80;;;;;;5009875;28;20517;-76
2022/06/27 05:21:50;;;;;;;9.10;7.20;;;22.60;78.80;;;;;;5006449;28;20791;-77
2022/06/27 05:24:21;;;;;;;8.63;6.77;;;22.60;78.90;;;;;;5001073;28;20542;-77
2022/06/27 05:26:49;;;;;;;10.17;6.93;;;22.70;79.10;;;;;;5007444;28;20467;-77
2022/06/27 05:29:17;;;;;;;10.13;6.67;;;22.80;79.20;;;;;;5007914;28;20458;-77
2022/06/27 05:31:45;;;;;;;8.57;5.87;;;22.80;79.20;;;;;;5008338;28;20492;-76
2022/06/27 05:34:15;;;;;;;6.87;5.13;;;22.90;79.20;;;;;;5005266;28;20511;-77
2022/06/27 05:36:45;;;;;;;9.40;4.97;;;23.10;79.20;;;;;;5027456;28;20455;-76
2022/06/27 05:39:13;;;;;;;6.90;4.70;;;23.30;79.90;;;;;;5021085;28;20939;-77
2022/06/27 05:41:43;;;;;;;7.80;4.90;;;23.60;80.30;;;;;;5022375;28;20441;-78
2022/06/27 05:44:15;;;;;;;8.07;4.57;;;24.00;79.70;;;;;;5005174;28;20563;-78
2022/06/27 05:46:44;;;;;;;6.90;4.53;;;24.50;78.40;;;;;;5023029;28;20473;-78
2022/06/27 05:49:19;;;;;;;8.37;4.63;;;24.70;76.10;;;;;;5028631;28;20479;-77
2022/06/27 05:52:24;;;;;;;7.03;4.00;;;24.50;75.30;;;;;;5022903;28;20531;-78
2022/06/27 05:54:54;;;;;;;7.17;4.23;;;24.50;78.00;;;;;;5007439;28;20470;-76
2022/06/27 05:57:24;;;;;;;6.63;4.00;;;25.10;76.70;;;;;;5003407;28;20454;-78
2022/06/27 05:59:52;;;;;;;6.03;4.03;;;25.40;74.80;;;;;;5020831;28;20480;-77
2022/06/27 06:02:21;;;;;;;7.57;4.33;;;25.20;73.40;;;;;;5020781;28;20474;-78
2022/06/27 06:04:51;;;;;;;6.63;4.47;;;24.80;73.50;;;;;;5015248;28;20488;-77
2022/06/27 06:07:22;;;;;;;7.03;5.30;;;24.40;73.80;;;;;;5006200;28;20532;-78
2022/06/27 06:09:52;;;;;;;8.10;4.77;;;24.00;74.30;;;;;;5017752;28;21160;-78
2022/06/27 06:12:21;;;;;;;8.00;5.20;;;23.80;74.70;;;;;;5013643;28;21069;-77
2022/06/27 06:14:50;;;;;;;7.60;5.30;;;23.50;75.10;;;;;;5019767;28;20491;-77
2022/06/27 06:17:18;;;;;;;10.03;6.30;;;23.40;75.50;;;;;;5020849;28;20927;-77
2022/06/27 06:19:46;;;;;;;8.40;5.90;;;23.20;75.70;;;;;;5016389;28;20567;-77
2022/06/27 06:22:14;;;;;;;8.57;5.30;;;23.10;75.90;;;;;;4993992;28;20457;-76
2022/06/27 06:24:42;;;;;;;8.13;5.40;;;23.00;76.30;;;;;;4999691;28;20502;-76
2022/06/27 06:27:12;;;;;;;6.33;4.43;;;23.00;77.30;;;;;;5015365;28;20895;-76
2022/06/27 06:29:42;;;;;;;7.60;5.00;;;23.20;78.20;;;;;;5017355;28;20644;-76
2022/06/27 06:32:11;;;;;;;7.27;4.70;;;23.60;77.80;;;;;;5014394;28;21199;-76
2022/06/27 06:34:41;;;;;;;7.53;4.53;;;23.70;77.00;;;;;;5014643;28;21229;-76
2022/06/27 06:37:10;;;;;;;6.30;4.23;;;23.70;76.50;;;;;;5012320;28;20454;-76
2022/06/27 06:39:42;;;;;;;6.50;4.63;;;23.60;76.40;;;;;;5004689;28;20481;-76
2022/06/27 06:42:11;;;;;;;6.60;4.50;;;23.60;76.40;;;;;;5001493;28;20468;-76
2022/06/27 06:45:00;;;;;;;6.60;4.57;;;23.50;76.20;;;;;;5016364;28;21179;-76
2022/06/27 06:47:44;;;;;;;9.07;4.40;;;23.40;76.30;;;;;;5020516;28;20467;-76
2022/06/27 06:50:15;;;;;;;6.80;4.80;;;23.30;76.50;;;;;;5013769;28;20471;-76
2022/06/27 06:52:43;;;;;;;6.87;4.73;;;23.20;76.60;;;;;;5002111;28;20484;-76
2022/06/27 06:55:12;;;;;;;7.07;4.20;;;23.20;76.70;;;;;;5013863;28;20484;-76
2022/06/27 06:57:41;;;;;;;7.43;5.17;;;23.10;76.70;;;;;;5016919;28;20462;-76
2022/06/27 07:00:11;;;;;;;6.60;4.00;;;23.10;76.90;;;;;;4999385;28;20503;-76
2022/06/27 07:02:39;;;;;;;6.67;4.63;;;23.00;76.90;;;;;;5019127;28;21122;-76
2022/06/27 07:05:11;;;;;;;6.60;5.00;;;23.00;77.00;;;;;;5017232;28;20474;-76
2022/06/27 07:07:41;;;;;;;7.87;5.50;;;23.00;77.10;;;;;;5018445;28;20478;-76
2022/06/27 07:10:11;;;;;;;7.23;5.40;;;23.00;77.10;;;;;;5014915;28;20556;-76
2022/06/27 07:12:41;;;;;;;9.63;5.90;;;23.00;77.10;;;;;;5015419;28;20484;-76
2022/06/27 07:15:10;;;;;;;10.90;6.40;;;23.00;77.20;;;;;;5002776;28;20487;-75
2022/06/27 07:17:45;;;;;;;9.60;6.67;;;23.00;77.30;;;;;;5020922;28;20455;-76
2022/06/27 07:20:14;;;;;;;10.60;8.13;;;23.00;77.30;;;;;;5014999;28;20463;-76
2022/06/27 07:22:42;;;;;;;9.80;6.90;;;23.00;77.30;;;;;;5013620;28;20457;-76
2022/06/27 07:25:10;;;;;;;10.27;7.70;;;22.90;77.30;;;;;;5016605;28;20480;-76
2022/06/27 07:27:40;;;;;;;12.50;8.40;;;22.90;77.30;;;;;;5017926;28;20457;-76
2022/06/27 07:30:12;;;;;;;9.90;7.23;;;22.90;77.50;;;;;;5019617;28;20465;-77
2022/06/27 07:32:41;;;;;;;9.83;7.40;;;22.90;77.50;;;;;;5013401;28;20489;-75
2022/06/27 07:35:11;;;;;;;10.20;7.03;;;22.90;77.60;;;;;;5020107;28;20495;-75
2022/06/27 07:37:43;;;;;;;10.60;7.83;;;22.90;77.70;;;;;;5012481;28;20539;-75
2022/06/27 07:40:12;;;;;;;10.37;8.33;;;22.90;77.80;;;;;;5016858;28;20982;-75
2022/06/27 07:42:47;;;;;;;9.70;8.00;;;22.90;77.70;;;;;;5011717;28;20454;-75
2022/06/27 07:45:22;;;;;;;9.80;7.70;;;22.90;77.70;;;;;;5010260;28;20490;-75
2022/06/27 07:47:51;;;;;;;13.60;9.50;;;23.00;77.70;;;;;;5015317;28;20520;-75
2022/06/27 07:50:37;;;;;;;13.50;9.60;;;22.90;77.60;;;;;;5015964;28;20455;-75
2022/06/27 07:53:14;;;;;;;12.87;8.70;;;22.90;77.70;;;;;;5015480;28;20479;-75
2022/06/27 07:55:46;;;;;;;13.50;8.80;;;22.90;77.60;;;;;;5014761;28;20536;-75
2022/06/27 07:58:17;;;;;;;14.90;9.70;;;22.90;77.60;;;;;;5016097;28;20456;-75
2022/06/27 08:00:48;;;;;;;11.60;8.97;;;22.90;77.80;;;;;;5013516;28;20549;-75
2022/06/27 08:06:05;;;;;;;10.63;8.00;;;22.80;77.90;;;;;;5013550;28;20468;-75
2022/06/27 08:08:36;;;;;;;10.53;9.13;;;22.80;77.90;;;;;;5017737;28;20579;-75
2022/06/27 08:11:06;;;;;;;13.40;10.07;;;22.80;78.00;;;;;;5015683;28;21078;-75
2022/06/27 08:13:35;;;;;;;14.40;9.30;;;22.80;78.20;;;;;;5014959;28;20500;-75
2022/06/27 08:16:05;;;;;;;11.50;9.33;;;22.80;78.20;;;;;;5012852;28;21287;-75
2022/06/27 08:18:35;;;;;;;12.27;9.80;;;22.80;78.20;;;;;;5015178;28;20452;-75
2022/06/27 08:21:03;;;;;;;13.13;10.23;;;22.70;78.40;;;;;;5014475;28;20916;-75
2022/06/27 08:23:33;;;;;;;14.47;11.10;;;22.70;78.60;;;;;;5016288;28;20489;-74
2022/06/27 08:26:01;;;;;;;11.87;10.63;;;22.80;78.70;;;;;;5017604;28;20900;-74
2022/06/27 08:28:29;;;;;;;12.60;10.10;;;22.80;78.90;;;;;;5017034;28;20456;-74
2022/06/27 08:31:01;;;;;;;12.20;10.03;;;22.80;78.90;;;;;;4997528;28;20472;-75
2022/06/27 08:33:31;;;;;;;12.17;10.10;;;22.80;79.00;;;;;;5017128;28;20538;-75
2022/06/27 08:36:02;;;;;;;11.23;9.63;;;22.90;79.00;;;;;;5014797;28;20576;-75
2022/06/27 08:38:32;;;;;;;12.63;10.67;;;22.90;79.00;;;;;;5014441;28;20471;-74
2022/06/27 08:41:00;;;;;;;12.70;11.07;;;22.90;79.00;;;;;;5017189;28;20452;-74
2022/06/27 08:43:28;;;;;;;12.30;10.03;;;23.00;79.20;;;;;;5012360;28;20486;-74
2022/06/27 08:45:57;;;;;;;13.50;11.10;;;23.10;79.10;;;;;;5014351;28;20474;-75
2022/06/27 08:48:28;;;;;;;11.80;10.23;;;23.20;79.10;;;;;;5007570;28;20832;-74
2022/06/27 08:50:59;;;;;;;11.77;10.03;;;23.20;79.00;;;;;;5015835;28;20774;-74
2022/06/27 08:53:27;;;;;;;12.90;11.27;;;23.20;79.00;;;;;;5017190;28;20483;-74
2022/06/27 08:55:55;;;;;;;11.47;9.57;;;23.30;79.00;;;;;;5019294;28;20463;-74
2022/06/27 08:58:25;;;;;;;12.20;9.20;;;23.40;79.00;;;;;;5013004;28;20460;-74
2022/06/27 09:00:53;;;;;;;12.00;9.73;;;23.40;78.90;;;;;;5017302;28;20476;-73
2022/06/27 09:03:22;;;;;;;11.13;8.50;;;23.50;78.60;;;;;;5018762;28;20466;-73
2022/06/27 09:06:00;;;;;;;9.80;8.30;;;23.50;78.50;;;;;;5015596;28;20526;-74
2022/06/27 09:08:31;;;;;;;11.87;9.20;;;23.50;78.30;;;;;;5017906;28;20462;-73
2022/06/27 09:11:00;;;;;;;11.37;9.17;;;23.50;78.20;;;;;;5016808;28;20465;-74
2022/06/27 09:13:29;;;;;;;11.30;8.87;;;23.60;78.20;;;;;;5013916;28;20489;-73
2022/06/27 09:15:58;;;;;;;9.90;8.50;;;23.60;78.00;;;;;;5018117;28;20474;-74
2022/06/27 09:18:28;;;;;;;9.73;7.67;;;23.60;77.90;;;;;;5019348;28;20490;-74
2022/06/27 09:21:00;;;;;;;13.03;9.43;;;23.60;77.90;;;;;;5020806;28;21027;-74
2022/06/27 09:23:43;;;;;;;9.50;7.63;;;23.60;77.90;;;;;;5017835;28;21055;-74
2022/06/27 09:26:15;;;;;;;11.17;7.40;;;23.70;77.80;;;;;;5019712;28;20472;-74
2022/06/27 09:28:45;;;;;;;10.83;8.30;;;23.70;77.70;;;;;;5020736;28;20534;-74
2022/06/27 09:31:30;;;;;;;10.37;7.80;;;23.70;77.60;;;;;;5018943;28;20552;-74
2022/06/27 09:34:03;;;;;;;10.60;8.10;;;23.70;77.50;;;;;;5016612;28;20523;-74
2022/06/27 09:36:36;;;;;;;11.50;8.53;;;23.70;77.50;;;;;;5016497;28;20455;-74
2022/06/27 09:39:06;;;;;;;9.90;7.90;;;23.70;77.40;;;;;;5002374;28;20520;-74
2022/06/27 09:41:36;;;;;;;8.77;7.03;;;23.70;77.40;;;;;;5018022;28;20583;-74
2022/06/27 09:44:10;;;;;;;9.70;7.73;;;23.70;77.20;;;;;;5017787;28;20842;-74
2022/06/27 09:46:42;;;;;;;8.60;7.07;;;23.70;77.30;;;;;;5017066;28;21013;-74
2022/06/27 09:49:14;;;;;;;9.30;7.00;;;23.60;77.30;;;;;;5016090;28;20465;-74
2022/06/27 09:51:43;;;;;;;11.63;6.93;;;23.70;77.40;;;;;;5016345;28;21213;-74
2022/06/27 09:54:22;;;;;;;8.80;6.83;;;23.70;77.30;;;;;;5016232;28;20501;-74
2022/06/27 09:56:52;;;;;;;9.27;6.20;;;23.80;77.30;;;;;;4999890;28;21061;-74
2022/06/27 09:59:20;;;;;;;8.80;5.57;;;23.80;77.20;;;;;;5016502;28;20496;-74
2022/06/27 10:01:50;;;;;;;7.53;5.20;;;23.80;77.00;;;;;;5011150;28;20476;-74
2022/06/27 10:04:21;;;;;;;6.87;4.53;;;23.80;76.60;;;;;;5016286;28;20465;-74
2022/06/27 10:06:50;;;;;;;6.30;4.23;;;23.70;76.40;;;;;;5016808;28;20456;-74
2022/06/27 10:09:21;;;;;;;6.20;4.50;;;23.60;76.50;;;;;;5014587;28;20458;-74
2022/06/27 10:12:31;;;;;;;6.23;4.80;;;23.60;76.50;;;;;;5001323;28;20453;-74
2022/06/27 10:15:18;;;;;;;6.97;4.10;;;23.60;76.50;;;;;;5016520;28;20487;-74
2022/06/27 10:17:50;;;;;;;7.83;4.60;;;23.50;76.30;;;;;;5018559;28;20815;-74
2022/06/27 10:20:20;;;;;;;6.40;4.80;;;23.40;76.40;;;;;;5012491;28;20459;-74
2022/06/27 10:23:37;;;;;;;6.93;4.57;;;23.40;76.60;;;;;;5018096;28;20464;-74
2022/06/27 10:26:05;;;;;;;8.90;4.67;;;23.40;76.70;;;;;;5016654;28;20556;-74
2022/06/27 10:28:35;;;;;;;5.93;4.07;;;23.40;76.70;;;;;;5014596;28;21428;-74
2022/06/27 10:31:03;;;;;;;6.83;4.77;;;23.50;76.70;;;;;;5015939;28;20976;-74
2022/06/27 10:33:38;;;;;;;6.50;4.67;;;23.60;76.60;;;;;;5012127;28;20492;-74
2022/06/27 10:36:13;;;;;;;6.67;4.40;;;23.60;76.60;;;;;;5016146;28;20469;-74
2022/06/27 10:38:57;;;;;;;6.63;4.97;;;23.60;76.50;;;;;;5014095;28;20459;-75
2022/06/27 10:41:41;;;;;;;7.27;4.70;;;23.60;76.40;;;;;;5015474;28;20493;-74
2022/06/27 10:44:30;;;;;;;7.37;5.17;;;23.60;76.50;;;;;;5016567;28;20473;-74
2022/06/27 10:46:59;;;;;;;7.70;4.40;;;23.70;76.50;;;;;;5016547;28;21024;-74
2022/06/27 10:49:29;;;;;;;7.67;5.27;;;23.70;76.20;;;;;;5020969;28;20453;-74
2022/06/27 10:52:24;;;;;;;6.50;4.60;;;23.60;76.20;;;;;;5017673;28;20478;-74
2022/06/27 10:54:54;;;;;;;7.23;5.00;;;23.60;76.00;;;;;;4994432;28;20502;-74
2022/06/27 10:57:42;;;;;;;6.00;4.47;;;23.60;76.20;;;;;;5018525;28;20461;-74
2022/06/27 11:00:12;;;;;;;6.30;4.83;;;23.50;76.30;;;;;;5015144;28;20837;-75
2022/06/27 11:02:41;;;;;;;5.87;3.97;;;23.50;76.40;;;;;;5013214;28;21107;-74
2022/06/27 11:05:13;;;;;;;6.10;3.63;;;23.50;76.30;;;;;;5016908;28;20507;-75
2022/06/27 11:07:41;;;;;;;5.83;3.97;;;23.60;76.50;;;;;;5009801;28;20479;-74
2022/06/27 11:10:11;;;;;;;5.90;4.23;;;23.70;76.60;;;;;;5010783;28;20549;-74
2022/06/27 11:12:39;;;;;;;5.50;3.80;;;23.80;76.60;;;;;;5011134;28;20481;-74
2022/06/27 11:15:11;;;;;;;6.67;4.00;;;23.90;76.60;;;;;;5012388;28;20608;-75
2022/06/27 11:17:41;;;;;;;5.40;3.73;;;24.00;76.70;;;;;;5015419;28;20465;-74
2022/06/27 11:20:20;;;;;;;6.40;3.70;;;24.10;76.70;;;;;;5014329;28;20450;-74
2022/06/27 11:23:06;;;;;;;6.00;4.03;;;24.20;76.50;;;;;;5014122;28;20462;-74
2022/06/27 11:25:39;;;;;;;5.37;3.90;;;24.30;76.30;;;;;;5020081;28;20470;-74
2022/06/27 11:33:42;;;;;;;5.03;3.17;;;24.40;75.90;;;;;;5016916;28;20493;-74
2022/06/27 11:36:12;;;;;;;5.20;3.63;;;24.50;75.60;;;;;;5014045;28;20521;-74
2022/06/27 11:38:45;;;;;;;4.87;3.40;;;24.50;75.60;;;;;;5016634;28;20460;-74
2022/06/27 11:41:16;;;;;;;5.80;3.53;;;24.40;75.50;;;;;;5002154;28;20543;-74
2022/06/27 11:43:53;;;;;;;6.30;3.73;;;24.50;75.50;;;;;;5017026;28;20864;-74
2022/06/27 11:46:33;;;;;;;4.97;3.53;;;24.50;75.50;;;;;;5017509;28;21067;-74
2022/06/27 11:49:04;;;;;;;5.97;3.67;;;24.50;75.40;;;;;;5020544;28;20467;-74
2022/06/27 11:51:35;;;;;;;8.63;3.53;;;24.50;75.40;;;;;;5022812;28;20466;-74
2022/06/27 11:54:07;;;;;;;6.47;4.30;;;24.50;75.30;;;;;;5020110;28;20579;-73
2022/06/27 11:56:39;;;;;;;6.63;4.27;;;24.50;75.20;;;;;;5020743;28;20461;-73
2022/06/27 11:59:08;;;;;;;6.17;3.70;;;24.60;75.00;;;;;;5021200;28;20465;-74
2022/06/27 12:01:51;;;;;;;5.57;3.83;;;24.60;75.00;;;;;;5019649;28;20508;-73
2022/06/27 12:04:21;;;;;;;5.07;3.67;;;24.60;74.90;;;;;;5025550;28;20517;-73
2022/06/27 12:06:52;;;;;;;6.63;3.67;;;24.60;74.90;;;;;;5022494;28;20456;-73
2022/06/27 12:09:21;;;;;;;6.60;3.70;;;24.60;74.70;;;;;;5017490;28;20566;-74
2022/06/27 12:11:57;;;;;;;7.43;3.63;;;24.60;74.50;;;;;;5019167;28;20462;-74
2022/06/27 12:14:26;;;;;;;4.50;2.90;;;24.60;74.50;;;;;;5019156;28;21052;-73
2022/06/27 12:16:55;;;;;;;6.50;2.93;;;24.60;74.40;;;;;;5013381;28;20486;-73
2022/06/27 12:19:27;;;;;;;4.87;2.87;;;24.60;74.30;;;;;;5013595;28;20449;-73
2022/06/27 12:21:56;;;;;;;4.37;2.50;;;24.70;74.20;;;;;;5015266;28;20458;-74
2022/06/27 12:24:24;;;;;;;7.10;3.60;;;24.80;74.00;;;;;;5012543;28;20497;-74
2022/06/27 12:26:54;;;;;;;6.30;3.20;;;24.80;73.80;;;;;;5014651;28;20828;-74
2022/06/27 12:29:22;;;;;;;5.03;2.83;;;24.80;73.50;;;;;;4997548;28;20479;-74
2022/06/27 12:31:50;;;;;;;6.00;2.90;;;24.80;73.40;;;;;;5013854;28;20502;-74
2022/06/27 12:34:18;;;;;;;27.97;3.60;;;24.70;73.30;;;;;;5013564;28;20509;-74
2022/06/27 12:36:47;;;;;;;5.10;2.60;;;24.70;73.10;;;;;;5013992;28;20469;-74
2022/06/27 12:39:15;;;;;;;5.43;2.70;;;24.70;73.10;;;;;;5013948;28;20462;-74
2022/06/27 12:41:42;;;;;;;6.50;2.87;;;24.70;73.00;;;;;;5013097;28;20467;-74
2022/06/27 12:44:13;;;;;;;5.80;2.80;;;24.70;72.90;;;;;;5014495;28;20483;-74
2022/06/27 12:46:41;;;;;;;6.13;2.83;;;24.70;72.90;;;;;;5013928;28;20461;-74
2022/06/27 12:49:24;;;;;;;5.37;3.10;;;24.70;72.80;;;;;;5016727;28;20458;-74
2022/06/27 12:51:52;;;;;;;5.07;3.00;;;24.60;72.60;;;;;;5017406;28;20485;-74
2022/06/27 12:54:26;;;;;;;7.10;3.37;;;24.60;72.50;;;;;;5013193;28;20500;-74
2022/06/27 12:56:54;;;;;;;6.13;2.80;;;24.60;72.70;;;;;;4999263;28;20460;-74
2022/06/27 12:59:24;;;;;;;5.33;3.00;;;24.60;72.70;;;;;;5015140;28;20878;-74
2022/06/27 13:01:52;;;;;;;5.50;3.17;;;24.60;72.60;;;;;;5013949;28;20478;-74
2022/06/27 13:04:20;;;;;;;5.70;3.30;;;24.60;72.50;;;;;;4996233;28;20655;-74
2022/06/27 13:06:48;;;;;;;6.13;3.80;;;24.60;72.50;;;;;;5016120;28;20577;-74
2022/06/27 13:09:16;;;;;;;8.73;3.70;;;24.50;72.50;;;;;;5016219;28;20532;-74
2022/06/27 13:11:44;;;;;;;5.20;3.10;;;24.50;72.50;;;;;;5011692;28;20462;-74
2022/06/27 13:14:12;;;;;;;6.90;3.90;;;24.40;72.70;;;;;;5010152;28;20488;-74
2022/06/27 13:16:42;;;;;;;4.77;3.30;;;24.40;73.00;;;;;;5012924;28;20492;-74
2022/06/27 13:19:11;;;;;;;8.87;3.77;;;24.40;72.90;;;;;;5014736;28;20954;-74